sensor_id;sensor_type;location;lat;lon;timestamp;pressure;altitude;pressure_sealevel;temperature;humidity
6615;BME280;3343;42.896;23.912;2023-02-01T00:00:55;96592.41;;;5.47;76.64
6615;BME280;3343;42.896;23.912;2023-02-01T00:03:22;96597.09;;;5.18;78.02
6615;BME280;3343;42.896;23.912;2023-02-01T00:05:56;96596.56;;;5.32;76.79
6615;BME280;3343;42.896;23.912;2023-02-01T00:08:23;96584.28;;;5.06;78.08
6615;BME280;3343;42.896;23.912;2023-02-01T00:10:58;96602.53;;;5.06;77.61
6615;BME280;3343;42.896;23.912;2023-02-01T00:13:25;96589.75;;;4.77;78.05
6615;BME280;3343;42.896;23.912;2023-02-01T00:15:53;96578.22;;;4.44;81.54
6615;BME280;3343;42.896;23.912;2023-02-01T00:18:20;96584.78;;;4.66;78.28
6615;BME280;3343;42.896;23.912;2023-02-01T00:20:47;96584.47;;;4.87;78.43
6615;BME280;3343;42.896;23.912;2023-02-01T00:23:15;96588.81;;;5.22;76.11
6615;BME280;3343;42.896;23.912;2023-02-01T00:25:42;96589.34;;;5.08;76.74
6615;BME280;3343;42.896;23.912;2023-02-01T00:28:09;96588.44;;;5.17;75.31
6615;BME280;3343;42.896;23.912;2023-02-01T00:30:38;96574.75;;;4.97;77.08
6615;BME280;3343;42.896;23.912;2023-02-01T00:33:05;96587.06;;;4.87;78.44
6615;BME280;3343;42.896;23.912;2023-02-01T00:35:33;96582.69;;;5.31;76.78
6615;BME280;3343;42.896;23.912;2023-02-01T00:38:00;96571.06;;;5.26;75.63
6615;BME280;3343;42.896;23.912;2023-02-01T00:40:28;96580.72;;;5.59;74.81
6615;BME280;3343;42.896;23.912;2023-02-01T00:42:55;96569.03;;;5.37;75.02
6615;BME280;3343;42.896;23.912;2023-02-01T00:45:23;96580.53;;;5.27;76.13
6615;BME280;3343;42.896;23.912;2023-02-01T00:47:49;96576.63;;;5.05;77.79
6615;BME280;3343;42.896;23.912;2023-02-01T00:50:16;96578.84;;;5.00;75.78
6615;BME280;3343;42.896;23.912;2023-02-01T00:52:43;96581.72;;;4.89;76.76
6615;BME280;3343;42.896;23.912;2023-02-01T00:55:10;96567.56;;;4.73;78.28
6615;BME280;3343;42.896;23.912;2023-02-01T00:57:38;96571.00;;;4.74;77.78
6615;BME280;3343;42.896;23.912;2023-02-01T01:00:06;96576.53;;;4.53;79.18
6615;BME280;3343;42.896;23.912;2023-02-01T01:02:33;96568.63;;;4.63;79.67
6615;BME280;3343;42.896;23.912;2023-02-01T01:05:00;96570.56;;;4.43;81.86
6615;BME280;3343;42.896;23.912;2023-02-01T01:07:27;96562.56;;;4.80;79.73
6615;BME280;3343;42.896;23.912;2023-02-01T01:09:55;96545.03;;;4.46;82.47
6615;BME280;3343;42.896;23.912;2023-02-01T01:12:21;96556.88;;;4.41;81.39
6615;BME280;3343;42.896;23.912;2023-02-01T01:14:50;96571.06;;;4.82;80.55
6615;BME280;3343;42.896;23.912;2023-02-01T01:17:16;96561.91;;;4.78;79.89
6615;BME280;3343;42.896;23.912;2023-02-01T01:19:43;96563.25;;;4.82;80.51
6615;BME280;3343;42.896;23.912;2023-02-01T01:22:10;96555.97;;;4.68;81.56
6615;BME280;3343;42.896;23.912;2023-02-01T01:24:37;96565.41;;;4.69;81.68
6615;BME280;3343;42.896;23.912;2023-02-01T01:27:04;96558.63;;;4.76;79.67
6615;BME280;3343;42.896;23.912;2023-02-01T01:29:30;96555.28;;;4.66;80.92
6615;BME280;3343;42.896;23.912;2023-02-01T01:31:59;96548.91;;;5.04;80.43
6615;BME280;3343;42.896;23.912;2023-02-01T01:34:25;96551.13;;;4.55;80.85
6615;BME280;3343;42.896;23.912;2023-02-01T01:36:52;96562.44;;;4.82;79.45
6615;BME280;3343;42.896;23.912;2023-02-01T01:39:19;96544.50;;;5.04;78.49
6615;BME280;3343;42.896;23.912;2023-02-01T01:41:46;96554.88;;;4.96;78.28
6615;BME280;3343;42.896;23.912;2023-02-01T01:47:18;96564.09;;;5.08;78.90
6615;BME280;3343;42.896;23.912;2023-02-01T01:49:45;96560.94;;;5.23;77.96
6615;BME280;3343;42.896;23.912;2023-02-01T01:52:12;96565.97;;;4.98;78.43
6615;BME280;3343;42.896;23.912;2023-02-01T01:54:44;96559.22;;;4.88;79.47
6615;BME280;3343;42.896;23.912;2023-02-01T01:57:14;96562.81;;;4.69;80.39
6615;BME280;3343;42.896;23.912;2023-02-01T01:59:47;96561.31;;;4.66;80.02
6615;BME280;3343;42.896;23.912;2023-02-01T02:02:35;96553.56;;;4.74;79.31
6615;BME280;3343;42.896;23.912;2023-02-01T02:05:03;96549.50;;;4.54;80.00
6615;BME280;3343;42.896;23.912;2023-02-01T02:07:32;96545.69;;;4.66;79.22
6615;BME280;3343;42.896;23.912;2023-02-01T02:10:01;96552.44;;;4.77;78.19
6615;BME280;3343;42.896;23.912;2023-02-01T02:12:31;96558.91;;;4.91;77.55
6615;BME280;3343;42.896;23.912;2023-02-01T02:14:59;96553.34;;;4.68;78.16
6615;BME280;3343;42.896;23.912;2023-02-01T02:17:30;96559.50;;;4.31;81.22
6615;BME280;3343;42.896;23.912;2023-02-01T02:20:33;96551.41;;;3.89;82.54
6615;BME280;3343;42.896;23.912;2023-02-01T02:23:26;96543.25;;;4.02;82.29
6615;BME280;3343;42.896;23.912;2023-02-01T02:26:14;96538.50;;;4.15;81.20
6615;BME280;3343;42.896;23.912;2023-02-01T02:32:03;96537.78;;;4.23;79.98
6615;BME280;3343;42.896;23.912;2023-02-01T02:34:37;96548.69;;;4.08;82.16
6615;BME280;3343;42.896;23.912;2023-02-01T02:37:11;96544.47;;;4.25;80.67
6615;BME280;3343;42.896;23.912;2023-02-01T02:39:50;96550.84;;;4.40;80.05
6615;BME280;3343;42.896;23.912;2023-02-01T02:42:25;96545.13;;;4.27;80.19
6615;BME280;3343;42.896;23.912;2023-02-01T02:45:17;96541.00;;;3.89;81.86
6615;BME280;3343;42.896;23.912;2023-02-01T02:48:09;96551.28;;;3.63;83.60
6615;BME280;3343;42.896;23.912;2023-02-01T02:50:43;96552.34;;;3.70;82.83
6615;BME280;3343;42.896;23.912;2023-02-01T02:53:35;96545.28;;;4.08;81.01
6615;BME280;3343;42.896;23.912;2023-02-01T02:56:23;96551.50;;;3.97;82.32
6615;BME280;3343;42.896;23.912;2023-02-01T02:59:12;96547.91;;;3.80;83.52
6615;BME280;3343;42.896;23.912;2023-02-01T03:01:58;96545.44;;;3.51;84.92
6615;BME280;3343;42.896;23.912;2023-02-01T03:04:43;96549.31;;;3.38;86.51
6615;BME280;3343;42.896;23.912;2023-02-01T03:07:49;96553.44;;;3.68;85.29
6615;BME280;3343;42.896;23.912;2023-02-01T03:10:26;96550.78;;;3.50;85.80
6615;BME280;3343;42.896;23.912;2023-02-01T03:12:55;96554.06;;;3.79;84.68
6615;BME280;3343;42.896;23.912;2023-02-01T03:16:09;96572.44;;;4.05;83.86
6615;BME280;3343;42.896;23.912;2023-02-01T03:18:55;96568.66;;;4.18;83.86
6615;BME280;3343;42.896;23.912;2023-02-01T03:21:26;96573.16;;;3.98;84.71
6615;BME280;3343;42.896;23.912;2023-02-01T03:24:01;96569.50;;;3.91;84.72
6615;BME280;3343;42.896;23.912;2023-02-01T03:26:31;96580.03;;;4.16;84.32
6615;BME280;3343;42.896;23.912;2023-02-01T03:29:05;96573.66;;;4.29;83.11
6615;BME280;3343;42.896;23.912;2023-02-01T03:31:35;96577.50;;;4.07;84.05
6615;BME280;3343;42.896;23.912;2023-02-01T03:34:02;96567.28;;;3.96;84.03
6615;BME280;3343;42.896;23.912;2023-02-01T03:36:33;96567.88;;;4.53;82.26
6615;BME280;3343;42.896;23.912;2023-02-01T03:39:06;96573.38;;;4.50;82.19
6615;BME280;3343;42.896;23.912;2023-02-01T03:41:40;96565.41;;;4.69;81.76
6615;BME280;3343;42.896;23.912;2023-02-01T03:44:12;96567.72;;;4.54;82.34
6615;BME280;3343;42.896;23.912;2023-02-01T03:46:45;96570.34;;;4.09;84.35
6615;BME280;3343;42.896;23.912;2023-02-01T03:49:17;96566.28;;;4.24;83.35
6615;BME280;3343;42.896;23.912;2023-02-01T03:51:46;96565.00;;;4.28;82.98
6615;BME280;3343;42.896;23.912;2023-02-01T03:54:17;96567.59;;;4.56;81.94
6615;BME280;3343;42.896;23.912;2023-02-01T03:56:46;96567.22;;;4.51;82.08
6615;BME280;3343;42.896;23.912;2023-02-01T03:59:14;96568.31;;;4.48;82.39
6615;BME280;3343;42.896;23.912;2023-02-01T04:01:41;96560.50;;;4.48;82.30
6615;BME280;3343;42.896;23.912;2023-02-01T04:04:09;96559.31;;;4.42;83.19
6615;BME280;3343;42.896;23.912;2023-02-01T04:06:45;96546.53;;;4.04;84.63
6615;BME280;3343;42.896;23.912;2023-02-01T04:09:12;96555.59;;;4.00;84.63
6615;BME280;3343;42.896;23.912;2023-02-01T04:11:40;96556.19;;;4.39;83.81
6615;BME280;3343;42.896;23.912;2023-02-01T04:14:07;96557.56;;;4.33;83.59
6615;BME280;3343;42.896;23.912;2023-02-01T04:16:34;96558.16;;;4.27;83.52
6615;BME280;3343;42.896;23.912;2023-02-01T04:19:01;96556.16;;;4.21;83.56
6615;BME280;3343;42.896;23.912;2023-02-01T04:21:28;96555.75;;;4.43;82.13
6615;BME280;3343;42.896;23.912;2023-02-01T04:23:55;96559.56;;;4.22;82.46
6615;BME280;3343;42.896;23.912;2023-02-01T04:26:22;96562.84;;;4.06;83.27
6615;BME280;3343;42.896;23.912;2023-02-01T04:28:50;96565.31;;;4.25;83.34
6615;BME280;3343;42.896;23.912;2023-02-01T04:31:18;96566.34;;;4.14;83.18
6615;BME280;3343;42.896;23.912;2023-02-01T04:34:38;96565.66;;;4.40;81.90
6615;BME280;3343;42.896;23.912;2023-02-01T04:37:19;96574.75;;;4.26;82.31
6615;BME280;3343;42.896;23.912;2023-02-01T04:39:46;96569.53;;;3.81;84.61
6615;BME280;3343;42.896;23.912;2023-02-01T04:42:13;96568.19;;;3.49;85.90
6615;BME280;3343;42.896;23.912;2023-02-01T04:44:41;96569.44;;;3.73;85.84
6615;BME280;3343;42.896;23.912;2023-02-01T04:47:42;96563.72;;;4.14;83.90
6615;BME280;3343;42.896;23.912;2023-02-01T04:50:26;96568.34;;;4.03;83.79
6615;BME280;3343;42.896;23.912;2023-02-01T04:52:53;96561.88;;;4.07;83.16
6615;BME280;3343;42.896;23.912;2023-02-01T04:55:20;96567.84;;;3.90;84.25
6615;BME280;3343;42.896;23.912;2023-02-01T04:57:46;96573.88;;;3.90;84.12
6615;BME280;3343;42.896;23.912;2023-02-01T05:00:16;96574.34;;;3.48;86.00
6615;BME280;3343;42.896;23.912;2023-02-01T05:02:56;96578.94;;;3.64;85.76
6615;BME280;3343;42.896;23.912;2023-02-01T05:05:24;96570.31;;;3.91;84.55
6615;BME280;3343;42.896;23.912;2023-02-01T05:07:50;96571.72;;;3.58;85.63
6615;BME280;3343;42.896;23.912;2023-02-01T05:10:17;96571.81;;;3.66;85.87
6615;BME280;3343;42.896;23.912;2023-02-01T05:12:44;96575.09;;;3.96;84.54
6615;BME280;3343;42.896;23.912;2023-02-01T05:15:30;96571.72;;;3.86;85.37
6615;BME280;3343;42.896;23.912;2023-02-01T05:17:57;96561.31;;;3.86;84.83
6615;BME280;3343;42.896;23.912;2023-02-01T05:20:25;96576.91;;;4.13;83.93
6615;BME280;3343;42.896;23.912;2023-02-01T05:22:52;96584.38;;;4.26;83.31
6615;BME280;3343;42.896;23.912;2023-02-01T05:25:18;96579.88;;;4.18;83.11
6615;BME280;3343;42.896;23.912;2023-02-01T05:27:46;96581.56;;;4.37;83.71
6615;BME280;3343;42.896;23.912;2023-02-01T05:30:13;96586.00;;;4.27;83.39
6615;BME280;3343;42.896;23.912;2023-02-01T05:32:42;96587.09;;;4.34;83.66
6615;BME280;3343;42.896;23.912;2023-02-01T05:35:09;96581.47;;;4.29;83.35
6615;BME280;3343;42.896;23.912;2023-02-01T05:37:36;96583.59;;;4.15;83.99
6615;BME280;3343;42.896;23.912;2023-02-01T05:40:03;96580.09;;;4.34;83.66
6615;BME280;3343;42.896;23.912;2023-02-01T05:42:30;96584.25;;;4.45;83.22
6615;BME280;3343;42.896;23.912;2023-02-01T05:44:57;96597.28;;;4.63;82.65
6615;BME280;3343;42.896;23.912;2023-02-01T05:47:24;96595.44;;;4.55;83.40
6615;BME280;3343;42.896;23.912;2023-02-01T05:49:52;96589.56;;;4.26;84.60
6615;BME280;3343;42.896;23.912;2023-02-01T05:52:19;96600.53;;;4.29;83.93
6615;BME280;3343;42.896;23.912;2023-02-01T05:54:46;96600.34;;;4.40;84.05
6615;BME280;3343;42.896;23.912;2023-02-01T05:57:13;96597.78;;;4.03;85.15
6615;BME280;3343;42.896;23.912;2023-02-01T05:59:40;96597.25;;;4.27;83.66
6615;BME280;3343;42.896;23.912;2023-02-01T06:02:10;96603.78;;;4.31;84.74
6615;BME280;3343;42.896;23.912;2023-02-01T06:04:37;96602.28;;;4.56;83.40
6615;BME280;3343;42.896;23.912;2023-02-01T06:07:07;96592.97;;;4.36;84.58
6615;BME280;3343;42.896;23.912;2023-02-01T06:09:35;96595.31;;;4.29;85.01
6615;BME280;3343;42.896;23.912;2023-02-01T06:12:02;96610.47;;;3.89;86.99
6615;BME280;3343;42.896;23.912;2023-02-01T06:14:29;96605.63;;;4.21;86.54
6615;BME280;3343;42.896;23.912;2023-02-01T06:16:56;96610.13;;;4.29;86.04
6615;BME280;3343;42.896;23.912;2023-02-01T06:19:23;96606.66;;;4.38;85.62
6615;BME280;3343;42.896;23.912;2023-02-01T06:21:50;96613.13;;;3.79;86.98
6615;BME280;3343;42.896;23.912;2023-02-01T06:24:24;96611.72;;;4.12;87.24
6615;BME280;3343;42.896;23.912;2023-02-01T06:26:51;96615.19;;;4.30;86.23
6615;BME280;3343;42.896;23.912;2023-02-01T06:29:18;96612.72;;;4.29;86.30
6615;BME280;3343;42.896;23.912;2023-02-01T06:31:45;96621.72;;;4.62;85.21
6615;BME280;3343;42.896;23.912;2023-02-01T06:34:11;96622.25;;;4.65;84.49
6615;BME280;3343;42.896;23.912;2023-02-01T06:36:38;96618.78;;;4.02;87.27
6615;BME280;3343;42.896;23.912;2023-02-01T06:39:05;96634.44;;;3.92;87.14
6615;BME280;3343;42.896;23.912;2023-02-01T06:42:18;96636.75;;;4.50;85.16
6615;BME280;3343;42.896;23.912;2023-02-01T06:44:45;96635.56;;;4.17;86.33
6615;BME280;3343;42.896;23.912;2023-02-01T06:47:12;96638.34;;;4.06;86.67
6615;BME280;3343;42.896;23.912;2023-02-01T06:49:39;96640.19;;;4.51;85.38
6615;BME280;3343;42.896;23.912;2023-02-01T06:52:06;96641.38;;;4.56;85.12
6615;BME280;3343;42.896;23.912;2023-02-01T06:54:33;96646.66;;;4.64;84.03
6615;BME280;3343;42.896;23.912;2023-02-01T06:57:02;96645.56;;;4.67;83.64
6615;BME280;3343;42.896;23.912;2023-02-01T06:59:30;96646.16;;;4.78;82.88
6615;BME280;3343;42.896;23.912;2023-02-01T07:01:57;96646.44;;;4.58;83.21
6615;BME280;3343;42.896;23.912;2023-02-01T07:04:24;96649.94;;;4.84;83.02
6615;BME280;3343;42.896;23.912;2023-02-01T07:06:51;96649.66;;;4.87;82.38
6615;BME280;3343;42.896;23.912;2023-02-01T07:09:18;96644.66;;;5.11;82.50
6615;BME280;3343;42.896;23.912;2023-02-01T07:11:44;96654.63;;;5.34;82.30
6615;BME280;3343;42.896;23.912;2023-02-01T07:14:11;96656.75;;;5.56;80.43
6615;BME280;3343;42.896;23.912;2023-02-01T07:16:39;96658.78;;;5.70;79.57
6615;BME280;3343;42.896;23.912;2023-02-01T07:19:06;96667.13;;;5.48;80.51
6615;BME280;3343;42.896;23.912;2023-02-01T07:21:33;96670.25;;;5.52;81.27
6615;BME280;3343;42.896;23.912;2023-02-01T07:24:00;96666.63;;;5.44;81.19
6615;BME280;3343;42.896;23.912;2023-02-01T07:26:27;96672.00;;;5.25;82.21
6615;BME280;3343;42.896;23.912;2023-02-01T07:28:53;96671.31;;;5.05;82.68
6615;BME280;3343;42.896;23.912;2023-02-01T07:31:20;96664.19;;;5.25;83.09
6615;BME280;3343;42.896;23.912;2023-02-01T07:33:50;96678.69;;;5.71;81.77
6615;BME280;3343;42.896;23.912;2023-02-01T07:36:18;96673.38;;;5.81;80.95
6615;BME280;3343;42.896;23.912;2023-02-01T07:38:45;96685.75;;;5.79;80.86
6615;BME280;3343;42.896;23.912;2023-02-01T07:41:13;96685.06;;;5.95;79.76
6615;BME280;3343;42.896;23.912;2023-02-01T07:43:40;96683.16;;;5.79;80.02
6615;BME280;3343;42.896;23.912;2023-02-01T07:46:07;96668.31;;;5.80;80.32
6615;BME280;3343;42.896;23.912;2023-02-01T07:48:34;96678.41;;;5.74;81.09
6615;BME280;3343;42.896;23.912;2023-02-01T07:51:04;96691.84;;;5.88;81.22
6615;BME280;3343;42.896;23.912;2023-02-01T07:53:33;96683.09;;;5.45;82.67
6615;BME280;3343;42.896;23.912;2023-02-01T07:56:00;96681.75;;;5.05;85.36
6615;BME280;3343;42.896;23.912;2023-02-01T07:58:27;96686.25;;;5.31;85.11
6615;BME280;3343;42.896;23.912;2023-02-01T08:00:54;96690.63;;;5.74;83.65
6615;BME280;3343;42.896;23.912;2023-02-01T08:03:39;96691.16;;;6.29;79.86
6615;BME280;3343;42.896;23.912;2023-02-01T08:06:08;96696.19;;;6.23;81.37
6615;BME280;3343;42.896;23.912;2023-02-01T08:08:35;96692.47;;;6.33;80.97
6615;BME280;3343;42.896;23.912;2023-02-01T08:11:04;96680.47;;;6.57;78.85
6615;BME280;3343;42.896;23.912;2023-02-01T08:13:33;96686.16;;;6.52;78.72
6615;BME280;3343;42.896;23.912;2023-02-01T08:16:01;96691.72;;;7.16;76.62
6615;BME280;3343;42.896;23.912;2023-02-01T08:18:28;96695.16;;;7.08;76.31
6615;BME280;3343;42.896;23.912;2023-02-01T08:20:55;96690.66;;;6.84;75.31
6615;BME280;3343;42.896;23.912;2023-02-01T08:23:24;96690.69;;;6.92;74.07
6615;BME280;3343;42.896;23.912;2023-02-01T08:25:51;96689.97;;;6.66;74.83
6615;BME280;3343;42.896;23.912;2023-02-01T08:28:17;96680.56;;;6.05;78.38
6615;BME280;3343;42.896;23.912;2023-02-01T08:30:44;96690.91;;;6.15;79.84
6615;BME280;3343;42.896;23.912;2023-02-01T08:33:11;96690.13;;;6.22;78.88
6615;BME280;3343;42.896;23.912;2023-02-01T08:35:38;96691.88;;;6.48;79.21
6615;BME280;3343;42.896;23.912;2023-02-01T08:38:05;96695.94;;;6.42;78.67
6615;BME280;3343;42.896;23.912;2023-02-01T08:40:33;96686.25;;;6.34;79.21
6615;BME280;3343;42.896;23.912;2023-02-01T08:43:00;96694.69;;;6.20;80.07
6615;BME280;3343;42.896;23.912;2023-02-01T08:45:28;96700.81;;;6.37;79.16
6615;BME280;3343;42.896;23.912;2023-02-01T08:47:56;96709.31;;;6.39;80.29
6615;BME280;3343;42.896;23.912;2023-02-01T08:50:23;96710.69;;;6.59;80.71
6615;BME280;3343;42.896;23.912;2023-02-01T08:52:51;96719.03;;;6.63;80.60
6615;BME280;3343;42.896;23.912;2023-02-01T08:55:18;96716.13;;;6.66;79.80
6615;BME280;3343;42.896;23.912;2023-02-01T08:57:46;96713.16;;;6.61;80.15
6615;BME280;3343;42.896;23.912;2023-02-01T09:00:15;96717.97;;;6.39;79.91
6615;BME280;3343;42.896;23.912;2023-02-01T09:02:42;96718.00;;;6.48;79.80
6615;BME280;3343;42.896;23.912;2023-02-01T09:05:10;96712.66;;;6.57;79.47
6615;BME280;3343;42.896;23.912;2023-02-01T09:07:37;96714.06;;;6.44;79.55
6615;BME280;3343;42.896;23.912;2023-02-01T09:10:05;96719.69;;;6.57;79.74
6615;BME280;3343;42.896;23.912;2023-02-01T09:12:33;96709.00;;;6.42;79.39
6615;BME280;3343;42.896;23.912;2023-02-01T09:15:01;96713.84;;;6.03;82.05
6615;BME280;3343;42.896;23.912;2023-02-01T09:17:29;96712.38;;;6.26;81.09
6615;BME280;3343;42.896;23.912;2023-02-01T09:19:56;96713.41;;;6.42;80.19
6615;BME280;3343;42.896;23.912;2023-02-01T09:22:23;96707.38;;;6.41;80.42
6615;BME280;3343;42.896;23.912;2023-02-01T09:24:52;96713.22;;;6.77;79.51
6615;BME280;3343;42.896;23.912;2023-02-01T09:27:19;96711.25;;;6.79;79.09
6615;BME280;3343;42.896;23.912;2023-02-01T09:29:46;96706.38;;;6.42;81.35
6615;BME280;3343;42.896;23.912;2023-02-01T09:32:20;96697.97;;;6.22;82.05
6615;BME280;3343;42.896;23.912;2023-02-01T09:34:48;96700.56;;;6.14;82.03
6615;BME280;3343;42.896;23.912;2023-02-01T09:37:15;96702.97;;;6.42;80.44
6615;BME280;3343;42.896;23.912;2023-02-01T09:39:42;96697.75;;;6.50;75.59
6615;BME280;3343;42.896;23.912;2023-02-01T09:42:19;96699.00;;;6.88;73.77
6615;BME280;3343;42.896;23.912;2023-02-01T09:44:57;96692.09;;;6.62;68.50
6615;BME280;3343;42.896;23.912;2023-02-01T09:47:31;96699.63;;;6.74;69.83
6615;BME280;3343;42.896;23.912;2023-02-01T09:50:02;96693.44;;;6.83;69.06
6615;BME280;3343;42.896;23.912;2023-02-01T09:52:34;96678.75;;;6.90;72.83
6615;BME280;3343;42.896;23.912;2023-02-01T09:55:05;96676.66;;;7.01;68.55
6615;BME280;3343;42.896;23.912;2023-02-01T09:57:41;96675.34;;;7.14;64.87
6615;BME280;3343;42.896;23.912;2023-02-01T10:00:16;96670.78;;;7.40;64.76
6615;BME280;3343;42.896;23.912;2023-02-01T10:02:46;96669.78;;;7.65;64.03
6615;BME280;3343;42.896;23.912;2023-02-01T10:05:16;96663.38;;;7.84;62.29
6615;BME280;3343;42.896;23.912;2023-02-01T10:07:49;96658.66;;;8.35;60.53
6615;BME280;3343;42.896;23.912;2023-02-01T10:10:23;96662.34;;;8.57;58.39
6615;BME280;3343;42.896;23.912;2023-02-01T10:13:10;96659.72;;;8.57;56.67
6615;BME280;3343;42.896;23.912;2023-02-01T10:15:49;96664.75;;;8.98;57.94
6615;BME280;3343;42.896;23.912;2023-02-01T10:18:42;96650.94;;;9.64;53.94
6615;BME280;3343;42.896;23.912;2023-02-01T10:21:21;96652.16;;;9.91;51.40
6615;BME280;3343;42.896;23.912;2023-02-01T10:24:05;96649.72;;;10.19;49.94
6615;BME280;3343;42.896;23.912;2023-02-01T10:26:39;96652.78;;;9.93;50.69
6615;BME280;3343;42.896;23.912;2023-02-01T10:29:14;96650.88;;;9.49;51.77
6615;BME280;3343;42.896;23.912;2023-02-01T10:31:43;96641.22;;;9.27;53.20
6615;BME280;3343;42.896;23.912;2023-02-01T10:34:17;96645.91;;;8.63;55.63
6615;BME280;3343;42.896;23.912;2023-02-01T10:36:53;96641.88;;;9.29;55.67
6615;BME280;3343;42.896;23.912;2023-02-01T10:39:21;96637.56;;;9.88;53.08
6615;BME280;3343;42.896;23.912;2023-02-01T10:41:49;96633.03;;;9.82;50.96
6615;BME280;3343;42.896;23.912;2023-02-01T10:44:17;96635.03;;;10.10;51.07
6615;BME280;3343;42.896;23.912;2023-02-01T10:46:45;96635.94;;;10.17;51.24
6615;BME280;3343;42.896;23.912;2023-02-01T10:49:18;96635.09;;;10.16;50.81
6615;BME280;3343;42.896;23.912;2023-02-01T10:51:47;96628.50;;;10.06;50.52
6615;BME280;3343;42.896;23.912;2023-02-01T10:54:19;96634.38;;;9.78;53.05
6615;BME280;3343;42.896;23.912;2023-02-01T10:56:47;96640.84;;;9.53;53.93
6615;BME280;3343;42.896;23.912;2023-02-01T10:59:16;96634.81;;;9.07;54.03
6615;BME280;3343;42.896;23.912;2023-02-01T11:01:46;96621.41;;;8.48;57.16
6615;BME280;3343;42.896;23.912;2023-02-01T11:04:16;96622.56;;;8.76;57.48
6615;BME280;3343;42.896;23.912;2023-02-01T11:06:47;96599.59;;;8.78;57.99
6615;BME280;3343;42.896;23.912;2023-02-01T11:09:18;96606.72;;;8.92;57.01
6615;BME280;3343;42.896;23.912;2023-02-01T11:11:55;96609.72;;;9.65;57.90
6615;BME280;3343;42.896;23.912;2023-02-01T11:14:32;96590.69;;;9.92;55.16
6615;BME280;3343;42.896;23.912;2023-02-01T11:17:10;96612.00;;;10.41;54.97
6615;BME280;3343;42.896;23.912;2023-02-01T11:19:46;96602.59;;;10.68;54.53
6615;BME280;3343;42.896;23.912;2023-02-01T11:22:13;96597.66;;;11.01;51.64
6615;BME280;3343;42.896;23.912;2023-02-01T11:24:44;96593.72;;;11.33;52.83
6615;BME280;3343;42.896;23.912;2023-02-01T11:27:16;96584.84;;;11.69;51.48
6615;BME280;3343;42.896;23.912;2023-02-01T11:29:46;96587.63;;;11.89;50.14
6615;BME280;3343;42.896;23.912;2023-02-01T11:32:18;96598.50;;;11.51;50.04
6615;BME280;3343;42.896;23.912;2023-02-01T11:34:50;96594.97;;;11.37;49.25
6615;BME280;3343;42.896;23.912;2023-02-01T11:37:21;96591.56;;;11.01;51.35
6615;BME280;3343;42.896;23.912;2023-02-01T11:39:56;96582.97;;;11.13;50.58
6615;BME280;3343;42.896;23.912;2023-02-01T11:42:24;96586.31;;;11.01;51.16
6615;BME280;3343;42.896;23.912;2023-02-01T11:45:15;96582.75;;;11.58;51.88
6615;BME280;3343;42.896;23.912;2023-02-01T11:47:43;96562.44;;;11.52;50.91
6615;BME280;3343;42.896;23.912;2023-02-01T11:50:15;96571.31;;;12.13;47.60
6615;BME280;3343;42.896;23.912;2023-02-01T11:53:02;96564.97;;;12.42;47.07
6615;BME280;3343;42.896;23.912;2023-02-01T11:55:52;96556.19;;;12.28;47.57
6615;BME280;3343;42.896;23.912;2023-02-01T12:01:39;96547.16;;;12.77;42.84
6615;BME280;3343;42.896;23.912;2023-02-01T12:04:26;96539.06;;;12.98;42.94
6615;BME280;3343;42.896;23.912;2023-02-01T12:07:02;96543.16;;;13.14;41.41
6615;BME280;3343;42.896;23.912;2023-02-01T12:09:40;96536.28;;;13.46;43.02
6615;BME280;3343;42.896;23.912;2023-02-01T12:12:16;96545.41;;;13.50;42.74
6615;BME280;3343;42.896;23.912;2023-02-01T12:15:03;96545.84;;;13.41;42.39
6615;BME280;3343;42.896;23.912;2023-02-01T12:18:05;96547.03;;;13.45;44.15
6615;BME280;3343;42.896;23.912;2023-02-01T12:20:53;96542.38;;;13.33;42.07
6615;BME280;3343;42.896;23.912;2023-02-01T12:23:44;96536.44;;;12.92;42.96
6615;BME280;3343;42.896;23.912;2023-02-01T12:26:33;96525.50;;;12.21;42.07
6615;BME280;3343;42.896;23.912;2023-02-01T12:29:18;96546.41;;;12.16;44.15
6615;BME280;3343;42.896;23.912;2023-02-01T12:31:59;96538.75;;;11.93;44.40
6615;BME280;3343;42.896;23.912;2023-02-01T12:34:40;96540.72;;;11.77;45.53
6615;BME280;3343;42.896;23.912;2023-02-01T12:37:17;96534.50;;;11.92;46.13
6615;BME280;3343;42.896;23.912;2023-02-01T12:39:53;96548.91;;;11.96;44.63
6615;BME280;3343;42.896;23.912;2023-02-01T12:42:26;96560.53;;;12.08;44.69
6615;BME280;3343;42.896;23.912;2023-02-01T12:44:59;96554.03;;;11.69;44.70
6615;BME280;3343;42.896;23.912;2023-02-01T12:47:32;96542.97;;;11.80;45.35
6615;BME280;3343;42.896;23.912;2023-02-01T12:50:02;96559.25;;;11.63;43.77
6615;BME280;3343;42.896;23.912;2023-02-01T12:52:36;96551.00;;;12.07;44.85
6615;BME280;3343;42.896;23.912;2023-02-01T12:55:15;96551.47;;;12.17;44.21
6615;BME280;3343;42.896;23.912;2023-02-01T12:57:45;96542.28;;;12.06;44.91
6615;BME280;3343;42.896;23.912;2023-02-01T13:00:20;96531.38;;;12.16;45.30
6615;BME280;3343;42.896;23.912;2023-02-01T13:02:54;96547.72;;;11.98;44.35
6615;BME280;3343;42.896;23.912;2023-02-01T13:05:27;96547.25;;;11.88;43.68
6615;BME280;3343;42.896;23.912;2023-02-01T13:07:59;96538.31;;;11.83;42.80
6615;BME280;3343;42.896;23.912;2023-02-01T13:10:32;96541.34;;;11.79;43.16
6615;BME280;3343;42.896;23.912;2023-02-01T13:13:05;96529.25;;;11.64;43.96
6615;BME280;3343;42.896;23.912;2023-02-01T13:15:39;96541.41;;;11.65;45.43
6615;BME280;3343;42.896;23.912;2023-02-01T13:18:14;96534.72;;;11.62;43.71
6615;BME280;3343;42.896;23.912;2023-02-01T13:20:47;96540.09;;;11.47;44.09
6615;BME280;3343;42.896;23.912;2023-02-01T13:23:22;96545.19;;;11.49;44.43
6615;BME280;3343;42.896;23.912;2023-02-01T13:25:53;96529.59;;;11.54;45.22
6615;BME280;3343;42.896;23.912;2023-02-01T13:28:25;96526.19;;;11.60;47.01
6615;BME280;3343;42.896;23.912;2023-02-01T13:31:17;96525.19;;;11.61;44.75
6615;BME280;3343;42.896;23.912;2023-02-01T13:34:03;96536.53;;;11.62;44.17
6615;BME280;3343;42.896;23.912;2023-02-01T13:36:52;96534.91;;;11.61;44.41
6615;BME280;3343;42.896;23.912;2023-02-01T13:39:46;96536.59;;;11.75;43.89
6615;BME280;3343;42.896;23.912;2023-02-01T13:42:21;96534.53;;;11.64;44.64
6615;BME280;3343;42.896;23.912;2023-02-01T13:44:51;96536.81;;;11.73;44.92
6615;BME280;3343;42.896;23.912;2023-02-01T13:47:25;96551.72;;;11.60;45.50
6615;BME280;3343;42.896;23.912;2023-02-01T13:49:55;96546.66;;;11.58;46.28
6615;BME280;3343;42.896;23.912;2023-02-01T13:52:27;96540.94;;;11.83;46.53
6615;BME280;3343;42.896;23.912;2023-02-01T13:55:16;96547.09;;;11.62;43.51